sensor_id;sensor_type;location;lat;lon;timestamp;temperature;humidity
41060;DHT22;26811;53.160;8.202;2023-02-21T00:00:22;9.30;99.90
41060;DHT22;26811;53.160;8.202;2023-02-21T00:05:41;9.30;99.90
41060;DHT22;26811;53.160;8.202;2023-02-21T00:11:00;9.30;99.90
41060;DHT22;26811;53.160;8.202;2023-02-21T00:16:19;9.40;99.90
41060;DHT22;26811;53.160;8.202;2023-02-21T00:21:38;9.40;99.90
41060;DHT22;26811;53.160;8.202;2023-02-21T00:26:57;9.30;99.90
41060;DHT22;26811;53.160;8.202;2023-02-21T00:32:16;9.50;99.90
41060;DHT22;26811;53.160;8.202;2023-02-21T00:37:35;9.50;99.90
41060;DHT22;26811;53.160;8.202;2023-02-21T00:42:54;9.50;99.90
41060;DHT22;26811;53.160;8.202;2023-02-21T00:48:19;9.50;99.90
41060;DHT22;26811;53.160;8.202;2023-02-21T00:53:38;9.50;99.90
41060;DHT22;26811;53.160;8.202;2023-02-21T00:58:57;9.50;99.90
41060;DHT22;26811;53.160;8.202;2023-02-21T01:04:16;9.60;99.90
41060;DHT22;26811;53.160;8.202;2023-02-21T01:09:35;9.50;99.90
41060;DHT22;26811;53.160;8.202;2023-02-21T01:14:54;9.50;99.90
41060;DHT22;26811;53.160;8.202;2023-02-21T01:20:13;9.50;99.90
41060;DHT22;26811;53.160;8.202;2023-02-21T01:25:32;9.40;99.90
41060;DHT22;26811;53.160;8.202;2023-02-21T01:30:51;9.40;99.90
41060;DHT22;26811;53.160;8.202;2023-02-21T01:36:10;9.40;99.90
41060;DHT22;26811;53.160;8.202;2023-02-21T01:41:29;9.40;99.90
41060;DHT22;26811;53.160;8.202;2023-02-21T01:46:49;9.40;99.90
41060;DHT22;26811;53.160;8.202;2023-02-21T01:52:07;9.40;99.90
41060;DHT22;26811;53.160;8.202;2023-02-21T01:57:27;9.40;99.90
41060;DHT22;26811;53.160;8.202;2023-02-21T02:03:08;9.40;99.90
41060;DHT22;26811;53.160;8.202;2023-02-21T02:08:29;9.40;99.90
41060;DHT22;26811;53.160;8.202;2023-02-21T02:14:00;9.40;99.90
41060;DHT22;26811;53.160;8.202;2023-02-21T02:35:21;9.40;99.90
41060;DHT22;26811;53.160;8.202;2023-02-21T02:51:07;9.30;99.90
41060;DHT22;26811;53.160;8.202;2023-02-21T02:56:12;9.30;99.90
41060;DHT22;26811;53.160;8.202;2023-02-21T03:12:09;9.30;99.90
41060;DHT22;26811;53.160;8.202;2023-02-21T03:17:15;9.30;99.90
41060;DHT22;26811;53.160;8.202;2023-02-21T03:22:21;9.30;99.90
41060;DHT22;26811;53.160;8.202;2023-02-21T03:27:24;9.20;99.90
41060;DHT22;26811;53.160;8.202;2023-02-21T03:32:29;9.20;99.90
41060;DHT22;26811;53.160;8.202;2023-02-21T03:42:34;9.20;99.90
41060;DHT22;26811;53.160;8.202;2023-02-21T03:47:35;9.20;99.90
41060;DHT22;26811;53.160;8.202;2023-02-21T03:52:36;9.20;99.90
41060;DHT22;26811;53.160;8.202;2023-02-21T03:57:36;9.20;99.90
41060;DHT22;26811;53.160;8.202;2023-02-21T04:02:37;9.20;99.90
41060;DHT22;26811;53.160;8.202;2023-02-21T04:07:37;9.20;99.90
41060;DHT22;26811;53.160;8.202;2023-02-21T04:12:38;9.20;99.90
41060;DHT22;26811;53.160;8.202;2023-02-21T04:17:38;9.20;99.90
41060;DHT22;26811;53.160;8.202;2023-02-21T04:22:39;9.20;99.90
41060;DHT22;26811;53.160;8.202;2023-02-21T04:27:40;9.20;99.90
41060;DHT22;26811;53.160;8.202;2023-02-21T04:32:40;9.20;99.90
41060;DHT22;26811;53.160;8.202;2023-02-21T04:37:41;9.20;99.90
41060;DHT22;26811;53.160;8.202;2023-02-21T04:42:42;9.20;99.90
41060;DHT22;26811;53.160;8.202;2023-02-21T04:47:42;9.20;99.90
41060;DHT22;26811;53.160;8.202;2023-02-21T04:52:43;9.20;99.90
41060;DHT22;26811;53.160;8.202;2023-02-21T04:57:43;9.20;99.90
41060;DHT22;26811;53.160;8.202;2023-02-21T05:02:44;9.20;99.90
41060;DHT22;26811;53.160;8.202;2023-02-21T05:07:45;9.20;99.90
41060;DHT22;26811;53.160;8.202;2023-02-21T05:12:45;9.20;99.90
41060;DHT22;26811;53.160;8.202;2023-02-21T05:17:46;9.20;99.90
41060;DHT22;26811;53.160;8.202;2023-02-21T05:22:48;9.10;99.90
41060;DHT22;26811;53.160;8.202;2023-02-21T05:27:50;9.20;99.90
41060;DHT22;26811;53.160;8.202;2023-02-21T05:32:51;9.20;99.90
41060;DHT22;26811;53.160;8.202;2023-02-21T05:37:52;9.20;99.90
41060;DHT22;26811;53.160;8.202;2023-02-21T05:42:52;9.20;99.90
41060;DHT22;26811;53.160;8.202;2023-02-21T05:47:53;9.20;99.90
41060;DHT22;26811;53.160;8.202;2023-02-21T05:52:58;9.20;99.90
41060;DHT22;26811;53.160;8.202;2023-02-21T05:57:59;9.20;99.90
41060;DHT22;26811;53.160;8.202;2023-02-21T06:02:59;9.10;99.90
41060;DHT22;26811;53.160;8.202;2023-02-21T06:08:00;9.10;99.90
41060;DHT22;26811;53.160;8.202;2023-02-21T06:13:00;9.10;99.90
41060;DHT22;26811;53.160;8.202;2023-02-21T06:18:01;9.20;99.90
41060;DHT22;26811;53.160;8.202;2023-02-21T06:23:01;9.10;99.90
41060;DHT22;26811;53.160;8.202;2023-02-21T06:28:02;9.10;99.90
41060;DHT22;26811;53.160;8.202;2023-02-21T06:33:02;9.10;99.90
41060;DHT22;26811;53.160;8.202;2023-02-21T06:38:03;9.10;99.90
41060;DHT22;26811;53.160;8.202;2023-02-21T06:43:04;9.10;99.90
41060;DHT22;26811;53.160;8.202;2023-02-21T06:48:04;9.10;99.90
41060;DHT22;26811;53.160;8.202;2023-02-21T06:53:05;9.10;99.90
41060;DHT22;26811;53.160;8.202;2023-02-21T06:58:05;9.10;99.90
41060;DHT22;26811;53.160;8.202;2023-02-21T07:03:06;9.10;99.90
41060;DHT22;26811;53.160;8.202;2023-02-21T07:08:07;9.10;99.90
41060;DHT22;26811;53.160;8.202;2023-02-21T07:13:07;9.10;99.90
41060;DHT22;26811;53.160;8.202;2023-02-21T07:18:08;9.10;99.90
41060;DHT22;26811;53.160;8.202;2023-02-21T07:23:08;9.10;99.90
41060;DHT22;26811;53.160;8.202;2023-02-21T07:28:10;9.10;99.90
41060;DHT22;26811;53.160;8.202;2023-02-21T07:33:10;9.10;99.90
41060;DHT22;26811;53.160;8.202;2023-02-21T07:38:26;9.10;99.90
41060;DHT22;26811;53.160;8.202;2023-02-21T07:43:28;9.20;99.90
41060;DHT22;26811;53.160;8.202;2023-02-21T07:48:29;9.20;99.90
41060;DHT22;26811;53.160;8.202;2023-02-21T07:53:29;9.20;99.90
41060;DHT22;26811;53.160;8.202;2023-02-21T07:58:30;9.30;99.90
41060;DHT22;26811;53.160;8.202;2023-02-21T08:03:31;9.30;99.90
41060;DHT22;26811;53.160;8.202;2023-02-21T08:08:32;9.30;99.90
41060;DHT22;26811;53.160;8.202;2023-02-21T08:13:33;9.30;99.90
41060;DHT22;26811;53.160;8.202;2023-02-21T08:18:33;9.30;99.90
41060;DHT22;26811;53.160;8.202;2023-02-21T08:23:34;9.30;99.90
41060;DHT22;26811;53.160;8.202;2023-02-21T08:28:34;9.30;99.90
41060;DHT22;26811;53.160;8.202;2023-02-21T08:33:36;9.30;99.90
41060;DHT22;26811;53.160;8.202;2023-02-21T08:38:38;9.30;99.90
41060;DHT22;26811;53.160;8.202;2023-02-21T08:43:39;9.40;99.90
41060;DHT22;26811;53.160;8.202;2023-02-21T08:48:39;9.50;99.90
41060;DHT22;26811;53.160;8.202;2023-02-21T08:53:40;9.50;99.90
41060;DHT22;26811;53.160;8.202;2023-02-21T08:58:40;9.50;99.90
41060;DHT22;26811;53.160;8.202;2023-02-21T09:03:41;9.50;99.90
41060;DHT22;26811;53.160;8.202;2023-02-21T09:08:42;9.60;99.90
41060;DHT22;26811;53.160;8.202;2023-02-21T09:13:42;9.60;99.90
41060;DHT22;26811;53.160;8.202;2023-02-21T09:18:43;9.60;99.90
41060;DHT22;26811;53.160;8.202;2023-02-21T09:23:43;9.70;99.90
41060;DHT22;26811;53.160;8.202;2023-02-21T09:28:44;9.70;99.90
41060;DHT22;26811;53.160;8.202;2023-02-21T09:33:45;9.70;99.90
41060;DHT22;26811;53.160;8.202;2023-02-21T09:38:46;9.80;99.90
41060;DHT22;26811;53.160;8.202;2023-02-21T09:43:50;10.00;99.90
41060;DHT22;26811;53.160;8.202;2023-02-21T09:48:52;10.10;99.90
41060;DHT22;26811;53.160;8.202;2023-02-21T09:53:55;10.20;99.90
41060;DHT22;26811;53.160;8.202;2023-02-21T09:58:57;10.20;99.90
41060;DHT22;26811;53.160;8.202;2023-02-21T10:04:08;10.30;99.90
41060;DHT22;26811;53.160;8.202;2023-02-21T10:10:06;10.40;99.90
41060;DHT22;26811;53.160;8.202;2023-02-21T10:20:21;10.30;99.90
41060;DHT22;26811;53.160;8.202;2023-02-21T10:25:30;10.30;99.90
41060;DHT22;26811;53.160;8.202;2023-02-21T10:30:37;10.20;99.90
41060;DHT22;26811;53.160;8.202;2023-02-21T10:35:40;10.20;99.90
41060;DHT22;26811;53.160;8.202;2023-02-21T10:40:54;10.30;99.90
41060;DHT22;26811;53.160;8.202;2023-02-21T10:46:24;10.40;99.90
41060;DHT22;26811;53.160;8.202;2023-02-21T10:51:32;10.40;99.90
41060;DHT22;26811;53.160;8.202;2023-02-21T10:56:32;10.40;99.90
41060;DHT22;26811;53.160;8.202;2023-02-21T11:01:41;10.50;99.90
41060;DHT22;26811;53.160;8.202;2023-02-21T11:06:46;10.60;99.90
41060;DHT22;26811;53.160;8.202;2023-02-21T11:11:48;10.70;99.90
41060;DHT22;26811;53.160;8.202;2023-02-21T11:17:20;10.80;99.90
41060;DHT22;26811;53.160;8.202;2023-02-21T11:22:41;10.90;99.90
41060;DHT22;26811;53.160;8.202;2023-02-21T11:27:43;11.00;99.90
41060;DHT22;26811;53.160;8.202;2023-02-21T11:32:49;11.00;99.90
41060;DHT22;26811;53.160;8.202;2023-02-21T11:37:56;11.10;99.90
41060;DHT22;26811;53.160;8.202;2023-02-21T11:43:12;11.20;99.90
41060;DHT22;26811;53.160;8.202;2023-02-21T11:48:18;11.30;99.90
41060;DHT22;26811;53.160;8.202;2023-02-21T11:53:31;11.30;99.90
41060;DHT22;26811;53.160;8.202;2023-02-21T12:03:55;11.40;99.90
41060;DHT22;26811;53.160;8.202;2023-02-21T12:09:19;11.50;99.90
41060;DHT22;26811;53.160;8.202;2023-02-21T12:30:54;12.10;99.90
41060;DHT22;26811;53.160;8.202;2023-02-21T12:36:13;12.10;99.90
41060;DHT22;26811;53.160;8.202;2023-02-21T12:41:24;12.20;99.90
41060;DHT22;26811;53.160;8.202;2023-02-21T12:46:37;12.10;99.90
41060;DHT22;26811;53.160;8.202;2023-02-21T12:51:45;11.90;99.90
41060;DHT22;26811;53.160;8.202;2023-02-21T12:56:55;11.70;99.90
41060;DHT22;26811;53.160;8.202;2023-02-21T13:02:03;11.90;99.90
41060;DHT22;26811;53.160;8.202;2023-02-21T13:13:09;12.20;99.90
41060;DHT22;26811;53.160;8.202;2023-02-21T13:18:19;12.40;99.90
41060;DHT22;26811;53.160;8.202;2023-02-21T13:28:59;12.10;99.90
41060;DHT22;26811;53.160;8.202;2023-02-21T13:34:01;12.00;99.90
41060;DHT22;26811;53.160;8.202;2023-02-21T13:49:49;11.60;99.90
41060;DHT22;26811;53.160;8.202;2023-02-21T14:10:53;11.70;99.90
41060;DHT22;26811;53.160;8.202;2023-02-21T14:16:07;11.70;99.90
41060;DHT22;26811;53.160;8.202;2023-02-21T14:31:55;11.50;99.90
41060;DHT22;26811;53.160;8.202;2023-02-21T14:37:01;11.30;99.90
41060;DHT22;26811;53.160;8.202;2023-02-21T14:42:34;11.20;99.90
41060;DHT22;26811;53.160;8.202;2023-02-21T14:53:39;11.30;99.90
41060;DHT22;26811;53.160;8.202;2023-02-21T15:04:17;11.40;99.90
41060;DHT22;26811;53.160;8.202;2023-02-21T15:09:20;11.40;99.90
41060;DHT22;26811;53.160;8.202;2023-02-21T15:14:29;11.50;99.90
41060;DHT22;26811;53.160;8.202;2023-02-21T15:19:33;11.40;99.90
41060;DHT22;26811;53.160;8.202;2023-02-21T15:24:33;11.40;99.90
41060;DHT22;26811;53.160;8.202;2023-02-21T15:29:34;11.40;99.90
41060;DHT22;26811;53.160;8.202;2023-02-21T15:34:39;11.30;99.90
41060;DHT22;26811;53.160;8.202;2023-02-21T15:39:42;11.20;99.90
41060;DHT22;26811;53.160;8.202;2023-02-21T15:44:58;11.20;99.90
41060;DHT22;26811;53.160;8.202;2023-02-21T15:50:08;11.10;99.90
41060;DHT22;26811;53.160;8.202;2023-02-21T16:00:28;10.90;99.90
41060;DHT22;26811;53.160;8.202;2023-02-21T16:05:29;10.90;99.90
41060;DHT22;26811;53.160;8.202;2023-02-21T16:10:31;10.80;99.90
41060;DHT22;26811;53.160;8.202;2023-02-21T16:15:33;10.70;99.90
41060;DHT22;26811;53.160;8.202;2023-02-21T16:20:37;10.70;99.90
41060;DHT22;26811;53.160;8.202;2023-02-21T16:31:00;10.60;99.90
41060;DHT22;26811;53.160;8.202;2023-02-21T16:36:05;10.60;99.90
41060;DHT22;26811;53.160;8.202;2023-02-21T16:41:11;10.50;99.90
41060;DHT22;26811;53.160;8.202;2023-02-21T16:46:13;10.50;99.90
41060;DHT22;26811;53.160;8.202;2023-02-21T16:51:14;10.40;99.90
41060;DHT22;26811;53.160;8.202;2023-02-21T16:56:14;10.40;99.90
41060;DHT22;26811;53.160;8.202;2023-02-21T17:01:28;10.30;99.90
41060;DHT22;26811;53.160;8.202;2023-02-21T17:06:29;10.30;99.90
41060;DHT22;26811;53.160;8.202;2023-02-21T17:11:30;10.30;99.90
41060;DHT22;26811;53.160;8.202;2023-02-21T17:16:30;10.20;99.90
41060;DHT22;26811;53.160;8.202;2023-02-21T17:21:31;10.20;99.90
41060;DHT22;26811;53.160;8.202;2023-02-21T17:26:31;10.20;99.90
41060;DHT22;26811;53.160;8.202;2023-02-21T17:31:32;10.10;99.90
41060;DHT22;26811;53.160;8.202;2023-02-21T17:36:33;10.10;99.90
41060;DHT22;26811;53.160;8.202;2023-02-21T17:41:34;10.10;99.90
41060;DHT22;26811;53.160;8.202;2023-02-21T17:46:34;10.00;99.90
41060;DHT22;26811;53.160;8.202;2023-02-21T17:51:35;10.00;99.90
41060;DHT22;26811;53.160;8.202;2023-02-21T17:56:35;10.00;99.90
41060;DHT22;26811;53.160;8.202;2023-02-21T18:01:36;10.00;99.90
41060;DHT22;26811;53.160;8.202;2023-02-21T18:06:36;10.00;99.90
41060;DHT22;26811;53.160;8.202;2023-02-21T18:11:37;10.00;99.90
41060;DHT22;26811;53.160;8.202;2023-02-21T18:16:37;9.90;99.90
41060;DHT22;26811;53.160;8.202;2023-02-21T18:21:38;9.90;99.90
41060;DHT22;26811;53.160;8.202;2023-02-21T18:26:40;9.90;99.90
41060;DHT22;26811;53.160;8.202;2023-02-21T18:31:41;9.90;99.90
41060;DHT22;26811;53.160;8.202;2023-02-21T18:36:52;10.00;99.90
41060;DHT22;26811;53.160;8.202;2023-02-21T18:41:52;9.90;99.90
41060;DHT22;26811;53.160;8.202;2023-02-21T18:46:54;10.00;99.90
41060;DHT22;26811;53.160;8.202;2023-02-21T18:51:55;10.00;99.90
41060;DHT22;26811;53.160;8.202;2023-02-21T18:56:55;9.90;99.90
41060;DHT22;26811;53.160;8.202;2023-02-21T19:01:56;10.00;99.90
41060;DHT22;26811;53.160;8.202;2023-02-21T19:06:56;9.90;99.90
41060;DHT22;26811;53.160;8.202;2023-02-21T19:11:57;9.90;99.90
41060;DHT22;26811;53.160;8.202;2023-02-21T19:16:57;9.90;99.90
41060;DHT22;26811;53.160;8.202;2023-02-21T19:21:58;9.90;99.90
41060;DHT22;26811;53.160;8.202;2023-02-21T19:26:59;9.90;99.90
41060;DHT22;26811;53.160;8.202;2023-02-21T19:32:00;9.90;99.90
41060;DHT22;26811;53.160;8.202;2023-02-21T19:37:00;9.70;99.90
41060;DHT22;26811;53.160;8.202;2023-02-21T19:42:01;9.80;99.90
41060;DHT22;26811;53.160;8.202;2023-02-21T19:47:03;9.70;99.90
41060;DHT22;26811;53.160;8.202;2023-02-21T19:52:03;9.60;99.90
41060;DHT22;26811;53.160;8.202;2023-02-21T19:57:04;9.60;99.90
41060;DHT22;26811;53.160;8.202;2023-02-21T20:02:05;9.60;99.90
41060;DHT22;26811;53.160;8.202;2023-02-21T20:07:07;9.60;99.90
41060;DHT22;26811;53.160;8.202;2023-02-21T20:12:07;9.60;99.90
41060;DHT22;26811;53.160;8.202;2023-02-21T20:17:08;9.60;99.90
41060;DHT22;26811;53.160;8.202;2023-02-21T20:22:09;9.60;99.90
41060;DHT22;26811;53.160;8.202;2023-02-21T20:27:09;9.50;99.90
41060;DHT22;26811;53.160;8.202;2023-02-21T20:32:13;9.60;99.90
41060;DHT22;26811;53.160;8.202;2023-02-21T20:37:17;9.50;99.90
41060;DHT22;26811;53.160;8.202;2023-02-21T20:42:18;9.50;99.90
41060;DHT22;26811;53.160;8.202;2023-02-21T20:47:22;9.50;99.90
41060;DHT22;26811;53.160;8.202;2023-02-21T20:52:22;9.50;99.90
41060;DHT22;26811;53.160;8.202;2023-02-21T20:57:23;9.50;99.90
41060;DHT22;26811;53.160;8.202;2023-02-21T21:02:23;9.50;99.90
41060;DHT22;26811;53.160;8.202;2023-02-21T21:07:24;9.50;99.90
41060;DHT22;26811;53.160;8.202;2023-02-21T21:12:24;9.50;99.90
41060;DHT22;26811;53.160;8.202;2023-02-21T21:17:25;9.50;99.90
41060;DHT22;26811;53.160;8.202;2023-02-21T21:22:26;9.40;99.90
41060;DHT22;26811;53.160;8.202;2023-02-21T21:27:28;9.40;99.90
41060;DHT22;26811;53.160;8.202;2023-02-21T21:32:28;9.40;99.90
41060;DHT22;26811;53.160;8.202;2023-02-21T21:37:29;9.40;99.90
41060;DHT22;26811;53.160;8.202;2023-02-21T21:42:29;9.40;99.90
41060;DHT22;26811;53.160;8.202;2023-02-21T21:47:30;9.40;99.90
41060;DHT22;26811;53.160;8.202;2023-02-21T21:52:36;9.40;99.90
41060;DHT22;26811;53.160;8.202;2023-02-21T21:57:38;9.40;99.90
41060;DHT22;26811;53.160;8.202;2023-02-21T22:02:38;9.40;99.90
41060;DHT22;26811;53.160;8.202;2023-02-21T22:07:39;9.30;99.90
41060;DHT22;26811;53.160;8.202;2023-02-21T22:12:41;9.30;99.90
41060;DHT22;26811;53.160;8.202;2023-02-21T22:17:45;9.30;99.90
41060;DHT22;26811;53.160;8.202;2023-02-21T22:22:50;9.30;99.90
41060;DHT22;26811;53.160;8.202;2023-02-21T22:27:51;9.30;99.90
41060;DHT22;26811;53.160;8.202;2023-02-21T22:32:51;9.30;99.90
41060;DHT22;26811;53.160;8.202;2023-02-21T22:37:54;9.30;99.90
41060;DHT22;26811;53.160;8.202;2023-02-21T22:42:57;9.20;99.90
41060;DHT22;26811;53.160;8.202;2023-02-21T22:48:03;9.20;99.90
41060;DHT22;26811;53.160;8.202;2023-02-21T22:53:06;9.20;99.90
41060;DHT22;26811;53.160;8.202;2023-02-21T22:58:08;9.20;99.90
41060;DHT22;26811;53.160;8.202;2023-02-21T23:03:09;9.20;99.90
41060;DHT22;26811;53.160;8.202;2023-02-21T23:08:15;9.20;99.90
41060;DHT22;26811;53.160;8.202;2023-02-21T23:13:21;9.20;99.90
41060;DHT22;26811;53.160;8.202;2023-02-21T23:18:23;9.20;99.90
41060;DHT22;26811;53.160;8.202;2023-02-21T23:23:27;9.20;99.90
41060;DHT22;26811;53.160;8.202;2023-02-21T23:28:28;9.20;99.90
41060;DHT22;26811;53.160;8.202;2023-02-21T23:33:29;9.10;99.90
41060;DHT22;26811;53.160;8.202;2023-02-21T23:38:33;9.10;99.90
41060;DHT22;26811;53.160;8.202;2023-02-21T23:43:39;9.10;99.90
41060;DHT22;26811;53.160;8.202;2023-02-21T23:48:40;9.10;99.90
41060;DHT22;26811;53.160;8.202;2023-02-21T23:53:41;9.20;99.90
41060;DHT22;26811;53.160;8.202;2023-02-21T23:58:45;9.10;99.90
